Time;durP1;ratioP1;P1;durP2;ratioP2;P2;SDS_P1;SDS_P2;PMS_P1;PMS_P2;Temp;Humidity;BMP_temperature;BMP_pressure;BME280_temperature;BME280_humidity;BME280_pressure;Samples;Min_cycle;Max_cycle;Signal;HPM_P1;HPM_P2
2023/08/04 00:01:45;;;;;;;0.50;0.20;;;17.10;1.00;;;;;;5034547;28;20455;-60
2023/08/04 00:04:12;;;;;;;0.40;0.20;;;17.10;1.00;;;;;;5035222;28;20433;-61
2023/08/04 00:06:39;;;;;;;1.00;0.20;;;17.10;1.00;;;;;;5035225;28;20911;-60
2023/08/04 00:09:06;;;;;;;0.40;0.20;;;17.10;1.00;;;;;;5035493;28;20521;-60
2023/08/04 00:11:33;;;;;;;0.40;0.20;;;17.00;1.00;;;;;;5034821;28;20517;-61
2023/08/04 00:14:00;;;;;;;0.50;0.20;;;16.90;1.00;;;;;;5035356;28;20422;-60
2023/08/04 00:16:27;;;;;;;0.40;0.20;;;16.80;1.00;;;;;;5035055;28;20772;-61
2023/08/04 00:18:55;;;;;;;0.38;0.20;;;16.80;1.00;;;;;;5034111;28;20639;-60
2023/08/04 00:21:22;;;;;;;0.40;0.20;;;16.70;1.00;;;;;;5034334;28;20450;-61
2023/08/04 00:23:49;;;;;;;0.40;0.20;;;16.70;1.00;;;;;;5034551;28;20493;-61
2023/08/04 00:26:15;;;;;;;0.77;0.20;;;16.60;1.00;;;;;;5035177;28;20893;-61
2023/08/04 00:28:42;;;;;;;0.40;0.20;;;16.50;1.00;;;;;;5034590;28;20418;-60
2023/08/04 00:31:12;;;;;;;0.50;0.30;;;16.40;1.00;;;;;;5034917;28;20510;-61
2023/08/04 00:33:39;;;;;;;0.40;0.20;;;16.30;1.00;;;;;;5034429;28;20430;-61
2023/08/04 00:36:07;;;;;;;0.50;0.20;;;16.30;1.00;;;;;;5035249;28;20474;-61
2023/08/04 00:38:34;;;;;;;0.40;0.20;;;16.50;1.00;;;;;;5034669;28;20517;-60
2023/08/04 00:41:01;;;;;;;0.70;0.20;;;16.50;1.00;;;;;;5034943;28;20529;-60
2023/08/04 00:43:28;;;;;;;0.90;0.20;;;16.40;1.00;;;;;;5035535;28;20877;-60
2023/08/04 00:45:55;;;;;;;0.40;0.20;;;16.40;1.00;;;;;;5034662;28;20433;-60
2023/08/04 00:48:22;;;;;;;0.60;0.30;;;16.40;1.00;;;;;;5033760;28;20534;-59
2023/08/04 00:50:49;;;;;;;0.70;0.20;;;16.40;1.00;;;;;;5033953;28;20526;-61
2023/08/04 00:53:18;;;;;;;0.50;0.20;;;16.30;1.00;;;;;;5034091;28;20522;-61
2023/08/04 00:55:45;;;;;;;1.98;0.20;;;16.30;1.00;;;;;;5033809;28;20434;-61
2023/08/04 00:58:13;;;;;;;0.50;0.30;;;16.30;1.00;;;;;;5034959;28;20530;-61
2023/08/04 01:00:40;;;;;;;0.40;0.20;;;16.20;1.00;;;;;;5033508;28;20690;-61
2023/08/04 01:03:07;;;;;;;1.00;0.20;;;16.10;1.00;;;;;;5032746;28;20458;-61
2023/08/04 01:05:43;;;;;;;0.60;0.20;;;16.10;1.00;;;;;;5032891;28;20433;-60
2023/08/04 01:08:18;;;;;;;1.25;0.30;;;16.20;1.00;;;;;;5032056;28;20513;-61
2023/08/04 01:10:51;;;;;;;0.80;0.30;;;16.10;1.00;;;;;;5032454;28;20505;-61
2023/08/04 01:13:21;;;;;;;0.80;0.30;;;16.00;1.00;;;;;;5032709;28;20426;-60
2023/08/04 01:15:49;;;;;;;0.70;0.30;;;15.90;1.00;;;;;;5030123;28;20851;-60
2023/08/04 01:18:20;;;;;;;0.40;0.20;;;15.90;1.00;;;;;;5034487;28;20450;-61
2023/08/04 01:20:47;;;;;;;0.80;0.30;;;15.90;1.00;;;;;;5033397;28;20426;-61
2023/08/04 01:23:15;;;;;;;1.00;0.30;;;15.80;1.00;;;;;;5034034;28;20520;-61
2023/08/04 01:25:43;;;;;;;1.05;0.30;;;15.80;1.00;;;;;;5034617;28;20509;-61
2023/08/04 01:28:14;;;;;;;0.60;0.20;;;15.70;1.00;;;;;;5033430;28;20485;-62
2023/08/04 01:30:44;;;;;;;0.40;0.20;;;15.70;1.00;;;;;;5033798;28;20419;-61
2023/08/04 01:33:12;;;;;;;0.40;0.20;;;15.60;1.00;;;;;;5033641;28;20524;-61
2023/08/04 01:35:39;;;;;;;0.50;0.30;;;15.60;1.00;;;;;;5033950;28;20731;-59
2023/08/04 01:38:05;;;;;;;0.70;0.30;;;15.50;1.00;;;;;;5033212;28;20513;-60
2023/08/04 01:40:34;;;;;;;0.90;0.20;;;15.50;1.00;;;;;;5033650;28;20658;-60
2023/08/04 01:43:00;;;;;;;0.60;0.30;;;15.50;1.00;;;;;;5033056;28;20447;-60
2023/08/04 01:45:27;;;;;;;0.60;0.20;;;15.50;1.00;;;;;;5033980;28;20533;-60
2023/08/04 01:47:54;;;;;;;0.43;0.20;;;15.50;1.00;;;;;;5034466;28;20514;-60
2023/08/04 01:50:21;;;;;;;0.60;0.20;;;15.50;1.00;;;;;;5034675;28;20518;-61
2023/08/04 01:52:48;;;;;;;0.60;0.20;;;15.40;1.00;;;;;;5033253;28;20421;-60
2023/08/04 01:55:17;;;;;;;0.60;0.30;;;15.50;1.00;;;;;;5033957;28;20533;-60
2023/08/04 01:57:45;;;;;;;0.37;0.20;;;15.50;1.00;;;;;;5033924;28;20513;-61
2023/08/04 02:00:13;;;;;;;0.40;0.20;;;15.50;1.00;;;;;;5034674;28;20778;-60
2023/08/04 02:02:40;;;;;;;0.60;0.20;;;15.50;1.00;;;;;;5033837;28;20430;-61
2023/08/04 02:05:08;;;;;;;0.90;0.20;;;15.50;1.00;;;;;;5033693;28;20533;-60
2023/08/04 02:07:35;;;;;;;0.50;0.20;;;15.60;1.00;;;;;;5032497;28;20466;-61
2023/08/04 02:10:02;;;;;;;0.40;0.20;;;15.60;1.00;;;;;;5034749;28;20925;-60
2023/08/04 02:12:28;;;;;;;1.90;0.30;;;15.60;1.00;;;;;;5037634;28;20433;-61
2023/08/04 02:14:57;;;;;;;0.50;0.20;;;15.70;1.00;;;;;;5037454;28;20781;-60
2023/08/04 02:17:23;;;;;;;1.30;0.20;;;15.90;1.00;;;;;;5037509;28;20918;-60
2023/08/04 02:19:50;;;;;;;0.70;0.20;;;15.90;1.00;;;;;;5037895;28;20895;-60
2023/08/04 02:22:17;;;;;;;0.90;0.20;;;15.90;1.00;;;;;;5037051;28;20513;-61
2023/08/04 02:24:44;;;;;;;0.60;0.20;;;16.00;1.00;;;;;;5036771;28;20439;-61
2023/08/04 02:27:11;;;;;;;0.60;0.25;;;15.90;1.00;;;;;;5036986;28;20432;-61
2023/08/04 02:29:38;;;;;;;0.60;0.20;;;15.90;1.00;;;;;;5036355;28;20427;-61
2023/08/04 02:32:06;;;;;;;0.60;0.20;;;15.80;1.00;;;;;;5036033;28;20925;-60
2023/08/04 02:34:33;;;;;;;1.27;0.20;;;15.70;1.00;;;;;;5036180;28;20767;-60
2023/08/04 02:37:00;;;;;;;0.50;0.20;;;15.60;1.00;;;;;;5037325;28;20642;-59
2023/08/04 02:39:27;;;;;;;0.50;0.20;;;15.70;1.00;;;;;;5035396;28;20423;-61
2023/08/04 02:41:57;;;;;;;0.80;0.20;;;15.60;1.00;;;;;;5034493;28;20427;-61
2023/08/04 02:44:24;;;;;;;1.00;0.20;;;15.60;1.00;;;;;;5035862;28;20449;-61
2023/08/04 02:46:50;;;;;;;0.60;0.20;;;15.60;1.00;;;;;;5036594;28;20442;-60
2023/08/04 02:49:19;;;;;;;0.80;0.20;;;15.70;1.00;;;;;;5036419;28;20429;-60
2023/08/04 02:51:45;;;;;;;0.40;0.30;;;15.70;1.00;;;;;;5036801;28;20505;-60
2023/08/04 02:54:12;;;;;;;0.80;0.20;;;15.70;1.00;;;;;;5036179;28;20427;-61
2023/08/04 02:56:39;;;;;;;0.45;0.20;;;15.80;1.00;;;;;;5036581;28;20526;-60
2023/08/04 02:59:06;;;;;;;0.40;0.20;;;15.80;1.00;;;;;;5036449;28;20431;-61
2023/08/04 03:01:33;;;;;;;0.50;0.20;;;15.80;1.00;;;;;;5036785;28;20499;-61
2023/08/04 03:04:00;;;;;;;0.65;0.20;;;15.80;1.00;;;;;;5036348;28;20427;-60
2023/08/04 03:06:28;;;;;;;0.88;0.28;;;15.90;1.00;;;;;;5035888;28;20517;-60
2023/08/04 03:08:55;;;;;;;0.40;0.20;;;15.90;1.00;;;;;;5035092;28;20803;-60
2023/08/04 03:11:22;;;;;;;0.35;0.20;;;16.00;1.00;;;;;;5035540;28;20502;-59
2023/08/04 03:13:48;;;;;;;0.30;0.20;;;16.00;1.00;;;;;;5035096;28;20454;-61
2023/08/04 03:16:15;;;;;;;0.40;0.20;;;16.10;1.00;;;;;;5035710;28;20510;-60
2023/08/04 03:18:42;;;;;;;0.90;0.20;;;16.20;1.00;;;;;;5035511;28;20419;-60
2023/08/04 03:21:09;;;;;;;0.52;0.20;;;16.30;1.00;;;;;;5035769;28;20522;-60
2023/08/04 03:23:37;;;;;;;0.50;0.20;;;16.30;1.00;;;;;;5035809;28;20521;-60
2023/08/04 03:26:04;;;;;;;1.20;0.30;;;16.30;1.00;;;;;;5034584;28;20473;-59
2023/08/04 03:28:31;;;;;;;0.40;0.20;;;16.30;1.00;;;;;;5035745;28;20445;-61
2023/08/04 03:30:58;;;;;;;0.38;0.20;;;16.30;1.00;;;;;;5036464;28;20506;-59
2023/08/04 03:33:24;;;;;;;0.37;0.20;;;16.20;1.00;;;;;;5035793;28;20510;-61
2023/08/04 03:35:51;;;;;;;1.10;0.20;;;16.30;1.00;;;;;;5036146;28;20601;-60
2023/08/04 03:38:18;;;;;;;0.40;0.20;;;16.30;1.00;;;;;;5035608;28;20482;-60
2023/08/04 03:40:46;;;;;;;0.60;0.20;;;16.30;1.00;;;;;;5035787;28;20487;-60
2023/08/04 03:43:13;;;;;;;0.40;0.20;;;16.30;1.00;;;;;;5036223;28;20637;-60
2023/08/04 03:45:40;;;;;;;0.40;0.20;;;16.30;1.00;;;;;;5036078;28;20438;-61
2023/08/04 03:48:07;;;;;;;0.40;0.20;;;16.30;1.00;;;;;;5035487;28;20430;-60
2023/08/04 03:50:34;;;;;;;0.50;0.20;;;16.30;1.00;;;;;;5035482;28;20505;-62
2023/08/04 03:53:01;;;;;;;0.60;0.20;;;16.40;1.00;;;;;;5034862;28;20789;-60
2023/08/04 03:55:28;;;;;;;1.35;0.20;;;16.40;1.00;;;;;;5036231;28;20415;-61
2023/08/04 03:57:57;;;;;;;0.50;0.20;;;16.50;1.00;;;;;;5036256;28;20450;-61
2023/08/04 04:00:24;;;;;;;0.50;0.20;;;16.50;1.00;;;;;;5035207;28;20778;-61
2023/08/04 04:02:50;;;;;;;1.05;0.20;;;16.50;1.00;;;;;;5035709;28;20537;-60
2023/08/04 04:05:17;;;;;;;0.50;0.20;;;16.60;1.00;;;;;;5034910;28;20526;-60
2023/08/04 04:07:44;;;;;;;0.40;0.20;;;16.70;1.00;;;;;;5035518;28;20666;-60
2023/08/04 04:10:11;;;;;;;0.40;0.20;;;16.70;1.00;;;;;;5035362;28;20813;-61
2023/08/04 04:12:38;;;;;;;0.80;0.20;;;16.70;1.00;;;;;;5035732;28;20726;-61
2023/08/04 04:15:07;;;;;;;0.70;0.20;;;16.80;1.00;;;;;;5035404;28;20499;-62
2023/08/04 04:17:35;;;;;;;0.50;0.20;;;16.90;99.90;;;;;;5035120;28;20526;-60
2023/08/04 04:20:02;;;;;;;0.50;0.25;;;16.90;99.90;;;;;;5034143;28;20510;-61
2023/08/04 04:22:30;;;;;;;0.40;0.20;;;16.80;99.90;;;;;;5035015;28;20426;-61
2023/08/04 04:24:57;;;;;;;0.40;0.20;;;16.70;99.90;;;;;;5035289;28;20446;-61
2023/08/04 04:27:24;;;;;;;0.80;0.20;;;16.70;1.00;;;;;;5035108;28;20934;-61
2023/08/04 04:29:51;;;;;;;0.50;0.20;;;16.60;1.00;;;;;;5033174;28;20435;-62
2023/08/04 04:32:19;;;;;;;0.57;0.30;;;16.60;1.00;;;;;;5033532;28;20431;-61
2023/08/04 04:34:46;;;;;;;0.75;0.20;;;16.70;1.00;;;;;;5032179;28;20490;-61
2023/08/04 04:37:13;;;;;;;1.40;0.20;;;16.70;1.00;;;;;;5032545;28;20918;-61
2023/08/04 04:39:40;;;;;;;0.40;0.20;;;16.80;1.00;;;;;;5032687;28;20514;-61
2023/08/04 04:42:07;;;;;;;0.30;0.10;;;16.80;1.00;;;;;;5033129;28;20530;-64
2023/08/04 04:44:34;;;;;;;0.60;0.20;;;16.80;1.00;;;;;;5033165;28;20430;-62
2023/08/04 04:47:01;;;;;;;0.40;0.20;;;16.80;99.90;;;;;;5032790;28;20525;-61
2023/08/04 04:49:29;;;;;;;0.60;0.20;;;16.80;1.00;;;;;;5033575;28;20450;-61
2023/08/04 04:51:56;;;;;;;0.50;0.20;;;16.90;99.90;;;;;;5034067;28;20431;-62
2023/08/04 04:54:23;;;;;;;1.10;0.28;;;16.90;99.90;;;;;;5034177;28;20431;-62
2023/08/04 04:56:50;;;;;;;0.40;0.20;;;16.80;99.90;;;;;;5033834;28;20517;-61
2023/08/04 04:59:17;;;;;;;0.50;0.20;;;16.80;1.00;;;;;;5033706;28;20944;-61
2023/08/04 05:01:44;;;;;;;0.43;0.20;;;16.70;1.00;;;;;;5033906;28;20529;-62
2023/08/04 05:04:11;;;;;;;0.80;0.20;;;16.80;1.00;;;;;;5034702;28;20499;-61
2023/08/04 05:06:39;;;;;;;0.80;0.20;;;16.70;1.00;;;;;;5034612;28;20534;-62
2023/08/04 05:09:08;;;;;;;0.40;0.20;;;16.70;1.00;;;;;;5033695;28;21090;-61
2023/08/04 05:11:34;;;;;;;0.50;0.30;;;16.70;1.00;;;;;;5033972;28;20811;-62
2023/08/04 05:14:01;;;;;;;0.40;0.20;;;16.80;1.00;;;;;;5033945;28;20469;-61
2023/08/04 05:16:28;;;;;;;0.60;0.30;;;16.90;1.00;;;;;;5033676;28;20582;-61
2023/08/04 05:18:55;;;;;;;0.50;0.20;;;17.00;1.00;;;;;;5033377;28;20517;-62
2023/08/04 05:21:22;;;;;;;0.40;0.20;;;17.00;1.00;;;;;;5032412;28;20797;-62
2023/08/04 05:23:50;;;;;;;1.23;0.40;;;16.90;99.90;;;;;;5031628;28;20914;-62
2023/08/04 05:26:17;;;;;;;0.50;0.20;;;16.90;1.00;;;;;;5030872;28;20533;-61
2023/08/04 05:28:44;;;;;;;0.50;0.20;;;17.00;99.90;;;;;;5031101;28;20734;-62
2023/08/04 05:31:10;;;;;;;0.60;0.20;;;17.10;99.90;;;;;;5030489;28;20499;-62
2023/08/04 05:33:37;;;;;;;0.50;0.20;;;17.10;99.90;;;;;;5030501;28;20577;-61
2023/08/04 05:36:05;;;;;;;0.70;0.20;;;17.20;99.90;;;;;;5030985;28;20521;-60
2023/08/04 05:38:32;;;;;;;0.40;0.20;;;17.10;99.90;;;;;;5031413;28;20442;-61
2023/08/04 05:41:02;;;;;;;0.40;0.20;;;17.20;99.90;;;;;;5032613;28;20430;-61
2023/08/04 05:43:29;;;;;;;0.50;0.20;;;17.30;99.90;;;;;;5032151;28;20482;-60
2023/08/04 05:46:02;;;;;;;0.40;0.20;;;17.30;99.90;;;;;;5033847;28;20449;-61
2023/08/04 05:48:29;;;;;;;0.60;0.30;;;17.30;99.90;;;;;;5034412;28;20426;-61
2023/08/04 05:50:56;;;;;;;0.40;0.20;;;17.40;99.90;;;;;;5034775;28;20433;-61
2023/08/04 05:53:23;;;;;;;0.50;0.30;;;17.50;99.90;;;;;;5034617;28;20498;-61
2023/08/04 05:55:50;;;;;;;0.50;0.20;;;17.60;83.30;;;;;;5034566;28;20714;-61
2023/08/04 05:58:18;;;;;;;0.70;0.20;;;17.60;91.00;;;;;;5034650;28;20513;-60
2023/08/04 06:00:45;;;;;;;1.10;0.30;;;17.80;1.00;;;;;;5037420;28;20517;-61
2023/08/04 06:03:12;;;;;;;0.80;0.30;;;17.90;1.00;;;;;;5035242;28;20456;-60
2023/08/04 06:05:39;;;;;;;0.50;0.20;;;18.00;1.00;;;;;;5053527;28;20744;-60
2023/08/04 06:08:06;;;;;;;0.40;0.20;;;18.10;99.90;;;;;;5053239;28;20504;-60
2023/08/04 06:10:33;;;;;;;0.70;0.20;;;18.10;1.00;;;;;;5039271;28;20944;-61
2023/08/04 06:13:02;;;;;;;0.70;0.30;;;18.20;99.90;;;;;;5030530;28;20827;-61
2023/08/04 06:15:30;;;;;;;0.80;0.20;;;18.10;99.90;;;;;;5035924;28;20801;-61
2023/08/04 06:17:57;;;;;;;0.60;0.25;;;18.10;1.00;;;;;;5052076;28;20535;-61
2023/08/04 06:20:24;;;;;;;0.70;0.30;;;18.10;1.00;;;;;;5032873;28;20537;-61
2023/08/04 06:22:51;;;;;;;0.50;0.20;;;18.20;99.90;;;;;;5044689;28;20457;-61
2023/08/04 06:25:18;;;;;;;0.98;0.35;;;18.10;99.90;;;;;;5036169;28;20529;-61
2023/08/04 06:27:45;;;;;;;0.60;0.20;;;18.20;99.90;;;;;;5047653;28;20436;-61
2023/08/04 06:30:12;;;;;;;0.90;0.20;;;18.40;1.00;;;;;;5055484;28;20528;-60
2023/08/04 06:32:40;;;;;;;0.47;0.20;;;18.30;99.90;;;;;;5049390;28;20447;-61
2023/08/04 06:35:08;;;;;;;0.47;0.20;;;18.10;1.00;;;;;;5051836;28;20515;-62
2023/08/04 06:37:35;;;;;;;0.40;0.20;;;18.20;1.00;;;;;;5055181;28;20421;-61
2023/08/04 06:40:03;;;;;;;0.60;0.30;;;18.40;99.90;;;;;;5056463;28;20508;-62
2023/08/04 06:42:30;;;;;;;0.47;0.20;;;18.50;80.70;;;;;;5055659;28;20452;-61
2023/08/04 06:44:57;;;;;;;0.40;0.20;;;18.60;1.00;;;;;;5056302;28;20486;-61
2023/08/04 06:47:24;;;;;;;0.40;0.20;;;18.70;99.90;;;;;;5057052;28;20823;-61
2023/08/04 06:49:52;;;;;;;0.40;0.20;;;18.70;99.90;;;;;;5055420;28;20508;-61
2023/08/04 06:52:19;;;;;;;0.50;0.20;;;18.70;99.90;;;;;;5054086;28;20503;-61
2023/08/04 06:54:47;;;;;;;0.50;0.30;;;18.60;99.90;;;;;;5054238;28;20791;-62
2023/08/04 06:57:13;;;;;;;0.50;0.30;;;18.60;99.90;;;;;;5052986;28;20551;-62
2023/08/04 06:59:40;;;;;;;1.30;0.30;;;18.70;99.90;;;;;;5053701;28;20815;-61
2023/08/04 07:02:07;;;;;;;1.83;0.30;;;19.00;1.00;;;;;;5054604;28;20865;-61
2023/08/04 07:04:34;;;;;;;1.10;0.30;;;19.20;99.90;;;;;;5054742;28;20421;-62
2023/08/04 07:07:03;;;;;;;1.40;0.30;;;19.00;99.90;;;;;;5055039;28;20441;-61
2023/08/04 07:09:29;;;;;;;0.60;0.30;;;18.80;99.90;;;;;;5053998;28;20500;-61
2023/08/04 07:11:56;;;;;;;0.80;0.40;;;18.80;1.00;;;;;;5052618;28;20519;-62
2023/08/04 07:14:23;;;;;;;0.65;0.30;;;18.90;1.00;;;;;;5054315;28;21417;-61
2023/08/04 07:16:50;;;;;;;1.23;0.30;;;18.90;1.00;;;;;;5046566;28;20877;-60
2023/08/04 07:19:17;;;;;;;1.20;0.30;;;19.00;1.00;;;;;;5055175;28;20424;-60
2023/08/04 07:21:44;;;;;;;1.20;0.30;;;19.10;1.00;;;;;;5055468;28;20908;-60
2023/08/04 07:24:12;;;;;;;0.80;0.30;;;19.20;99.90;;;;;;5055210;28;20920;-60
2023/08/04 07:26:39;;;;;;;1.20;0.30;;;19.30;1.00;;;;;;5054950;28;20539;-60
2023/08/04 07:29:06;;;;;;;1.00;0.30;;;19.10;1.00;;;;;;5054834;28;20456;-61
2023/08/04 07:31:33;;;;;;;0.50;0.30;;;19.10;1.00;;;;;;5052053;28;20507;-60
2023/08/04 07:34:01;;;;;;;0.90;0.40;;;19.30;1.00;;;;;;5055309;28;20519;-60
2023/08/04 07:36:28;;;;;;;0.50;0.20;;;19.40;1.00;;;;;;5053397;28;20528;-60
2023/08/04 07:38:55;;;;;;;0.70;0.20;;;19.60;99.90;;;;;;5054175;28;20686;-60
2023/08/04 07:41:25;;;;;;;0.50;0.30;;;19.60;99.90;;;;;;5051771;28;20432;-60
2023/08/04 07:43:52;;;;;;;0.70;0.30;;;19.70;99.90;;;;;;5052509;28;20425;-60
2023/08/04 07:46:24;;;;;;;0.60;0.20;;;19.70;93.30;;;;;;5053532;28;20532;-60
2023/08/04 07:48:51;;;;;;;0.50;0.30;;;19.90;1.00;;;;;;5053940;28;20552;-60
2023/08/04 07:51:18;;;;;;;0.50;0.20;;;20.10;1.00;;;;;;5053909;28;20424;-61
2023/08/04 07:53:45;;;;;;;0.90;0.30;;;20.40;99.90;;;;;;5054270;28;20548;-61
2023/08/04 07:56:12;;;;;;;1.10;0.30;;;20.80;99.90;;;;;;5051735;28;20452;-61
2023/08/04 07:58:40;;;;;;;2.30;0.30;;;21.00;1.00;;;;;;5053743;28;20496;-59
2023/08/04 08:01:07;;;;;;;0.60;0.30;;;20.70;1.00;;;;;;5049746;28;20528;-60
2023/08/04 08:03:35;;;;;;;0.80;0.30;;;20.70;1.00;;;;;;5037721;28;20762;-60
2023/08/04 08:06:03;;;;;;;0.63;0.30;;;20.90;1.00;;;;;;5032325;28;20485;-60
2023/08/04 08:08:30;;;;;;;0.70;0.22;;;20.90;1.00;;;;;;5033837;28;20522;-60
2023/08/04 08:10:57;;;;;;;0.50;0.20;;;20.70;1.00;;;;;;5031306;28;20839;-61
2023/08/04 08:13:24;;;;;;;0.70;0.30;;;20.80;1.00;;;;;;5032282;28;20419;-60
2023/08/04 08:15:52;;;;;;;0.50;0.20;;;20.90;1.00;;;;;;5030783;28;20509;-60
2023/08/04 08:18:19;;;;;;;0.70;0.28;;;20.90;1.00;;;;;;5029305;28;20521;-60
2023/08/04 08:20:46;;;;;;;1.80;0.30;;;20.80;1.00;;;;;;5031024;28;20517;-60
2023/08/04 08:23:13;;;;;;;0.60;0.30;;;20.50;1.00;;;;;;5031246;28;20427;-60
2023/08/04 08:25:41;;;;;;;0.60;0.30;;;20.30;1.00;;;;;;5030068;28;20423;-60
2023/08/04 08:28:11;;;;;;;0.70;0.28;;;20.30;28.90;;;;;;5024863;28;20419;-60
2023/08/04 08:30:39;;;;;;;1.00;0.30;;;20.20;99.90;;;;;;5033035;28;20517;-60
2023/08/04 08:33:07;;;;;;;1.42;0.28;;;20.30;92.40;;;;;;5032990;28;20521;-61
2023/08/04 08:35:34;;;;;;;0.50;0.20;;;20.40;99.90;;;;;;5031794;28;20427;-61
2023/08/04 08:38:01;;;;;;;0.40;0.20;;;20.50;99.90;;;;;;5031000;28;20918;-61
2023/08/04 08:40:28;;;;;;;0.90;0.30;;;20.50;99.90;;;;;;5031732;28;20439;-60
2023/08/04 08:42:56;;;;;;;0.50;0.30;;;20.50;99.90;;;;;;5032284;28;20922;-60
2023/08/04 08:45:27;;;;;;;0.80;0.30;;;20.30;99.90;;;;;;5030595;28;20441;-60
2023/08/04 08:47:55;;;;;;;0.47;0.20;;;20.30;99.90;;;;;;5042894;28;20788;-60
2023/08/04 08:50:25;;;;;;;1.38;0.30;;;20.50;99.90;;;;;;5051215;28;20531;-60
2023/08/04 08:52:57;;;;;;;0.52;0.30;;;20.70;99.90;;;;;;5052230;28;20512;-60
2023/08/04 08:55:26;;;;;;;0.60;0.30;;;20.90;93.30;;;;;;5039680;28;20442;-60
2023/08/04 08:57:55;;;;;;;0.43;0.22;;;21.40;1.00;;;;;;5043770;28;20832;-60
2023/08/04 09:00:22;;;;;;;0.50;0.30;;;21.60;1.00;;;;;;5053177;28;20501;-60
2023/08/04 09:02:49;;;;;;;0.50;0.30;;;21.60;1.00;;;;;;5052363;28;20717;-60
2023/08/04 09:05:17;;;;;;;0.50;0.20;;;21.70;1.00;;;;;;5053459;28;20809;-60
2023/08/04 09:07:45;;;;;;;0.70;0.30;;;21.40;1.00;;;;;;5035290;28;20809;-61
2023/08/04 09:10:12;;;;;;;0.90;0.30;;;21.40;1.00;;;;;;5030330;28;20426;-61
2023/08/04 09:12:40;;;;;;;0.60;0.30;;;21.50;1.00;;;;;;5038744;28;20431;-61
2023/08/04 09:15:08;;;;;;;0.88;0.30;;;21.50;1.00;;;;;;5044474;28;20811;-61
2023/08/04 09:17:39;;;;;;;1.00;0.30;;;21.50;1.00;;;;;;5049493;28;20495;-61
2023/08/04 09:20:08;;;;;;;0.52;0.30;;;21.70;1.00;;;;;;5040706;28;20475;-62
2023/08/04 09:22:40;;;;;;;0.90;0.30;;;21.80;1.00;;;;;;5051944;28;20425;-62
2023/08/04 09:25:09;;;;;;;0.60;0.30;;;21.70;1.00;;;;;;5034947;28;20430;-62
2023/08/04 09:27:38;;;;;;;0.88;0.30;;;21.60;1.00;;;;;;5039111;28;20532;-62
2023/08/04 09:30:06;;;;;;;0.50;0.30;;;21.60;1.00;;;;;;5033466;28;20889;-62
2023/08/04 09:32:41;;;;;;;0.60;0.30;;;21.60;1.00;;;;;;5044556;28;20459;-62
2023/08/04 09:35:08;;;;;;;0.40;0.30;;;21.60;1.00;;;;;;5047798;28;20855;-62
2023/08/04 09:37:38;;;;;;;0.60;0.20;;;22.00;1.00;;;;;;5047470;28;20420;-62
2023/08/04 09:40:14;;;;;;;0.80;0.30;;;22.30;1.00;;;;;;5048834;28;20806;-62
2023/08/04 09:42:41;;;;;;;0.80;0.30;;;22.20;99.90;;;;;;5031559;28;20948;-62
2023/08/04 09:45:09;;;;;;;0.50;0.30;;;22.10;99.90;;;;;;5040366;28;20537;-62
2023/08/04 09:47:36;;;;;;;0.90;0.30;;;21.90;1.00;;;;;;5029479;28;20665;-62
2023/08/04 09:50:10;;;;;;;0.82;0.30;;;21.60;1.00;;;;;;5046742;28;20429;-61
2023/08/04 09:52:36;;;;;;;1.20;0.30;;;21.70;1.00;;;;;;5049296;28;20419;-61
2023/08/04 09:55:04;;;;;;;0.47;0.30;;;21.50;1.00;;;;;;5048868;28;20513;-62
2023/08/04 09:57:32;;;;;;;0.65;0.30;;;21.40;1.00;;;;;;5050204;28;20482;-62
2023/08/04 10:00:00;;;;;;;0.50;0.30;;;21.30;1.00;;;;;;5048909;28;20495;-62
2023/08/04 10:02:28;;;;;;;0.60;0.30;;;21.20;1.00;;;;;;5047131;28;20471;-62
2023/08/04 10:04:55;;;;;;;0.77;0.30;;;21.20;1.00;;;;;;5045541;28;20801;-62
2023/08/04 10:07:22;;;;;;;1.67;0.38;;;21.30;1.00;;;;;;5037410;28;20430;-62
2023/08/04 10:09:50;;;;;;;0.40;0.20;;;21.20;1.00;;;;;;5045343;28;20820;-61
2023/08/04 10:12:18;;;;;;;0.40;0.20;;;21.10;1.00;;;;;;5046673;28;20436;-61
2023/08/04 10:14:46;;;;;;;0.60;0.20;;;21.00;1.00;;;;;;5050822;28;20800;-61
2023/08/04 10:17:13;;;;;;;0.40;0.20;;;21.00;52.40;;;;;;5040794;28;20750;-61
2023/08/04 10:19:40;;;;;;;0.50;0.20;;;21.10;99.90;;;;;;5041620;28;20429;-61
2023/08/04 10:22:09;;;;;;;1.20;0.20;;;21.00;99.90;;;;;;5044663;28;20534;-61
2023/08/04 10:24:37;;;;;;;0.50;0.30;;;20.90;1.00;;;;;;5044875;28;20452;-61
2023/08/04 10:27:15;;;;;;;0.40;0.22;;;20.80;99.90;;;;;;5044643;28;20778;-61
2023/08/04 10:29:42;;;;;;;0.60;0.20;;;20.80;99.90;;;;;;5050447;28;20428;-61
2023/08/04 10:32:17;;;;;;;1.50;0.30;;;20.70;1.00;;;;;;5042283;28;20438;-61
2023/08/04 10:34:50;;;;;;;0.80;0.30;;;20.60;1.00;;;;;;5033287;28;20425;-61
2023/08/04 10:37:19;;;;;;;0.50;0.20;;;20.60;99.90;;;;;;5034529;28;20822;-61
2023/08/04 10:39:47;;;;;;;0.70;0.27;;;20.90;99.90;;;;;;5034487;28;20430;-61
2023/08/04 10:42:23;;;;;;;0.70;0.30;;;21.20;82.10;;;;;;5042703;28;20639;-61
2023/08/04 10:44:54;;;;;;;0.60;0.30;;;21.60;1.00;;;;;;5054683;28;20805;-61
2023/08/04 10:47:46;;;;;;;1.10;0.30;;;21.70;99.90;;;;;;5044382;28;20451;-61
2023/08/04 10:50:14;;;;;;;0.60;0.28;;;21.60;99.90;;;;;;5036502;28;20459;-61
2023/08/04 10:52:42;;;;;;;1.20;0.20;;;21.80;1.00;;;;;;5038894;28;20517;-61
2023/08/04 10:55:12;;;;;;;0.40;0.30;;;21.40;1.00;;;;;;5035321;28;20894;-61
2023/08/04 10:57:40;;;;;;;1.00;0.30;;;21.30;99.90;;;;;;5038648;28;20991;-61
2023/08/04 11:00:09;;;;;;;0.50;0.20;;;21.40;99.90;;;;;;5041597;28;20491;-61
2023/08/04 11:02:37;;;;;;;0.70;0.30;;;21.40;1.00;;;;;;5050657;28;20437;-61
2023/08/04 11:05:08;;;;;;;1.30;0.20;;;21.20;99.90;;;;;;5052355;28;20514;-53
2023/08/04 11:07:36;;;;;;;1.30;0.38;;;21.20;99.90;;;;;;5044655;28;20429;-54
2023/08/04 11:10:05;;;;;;;0.60;0.30;;;21.20;99.90;;;;;;5051656;28;20504;-55
2023/08/04 11:12:33;;;;;;;0.83;0.30;;;21.40;1.00;;;;;;5053484;28;20539;-55
2023/08/04 11:15:03;;;;;;;0.90;0.40;;;21.40;99.90;;;;;;5050858;28;20446;-56
2023/08/04 11:17:33;;;;;;;1.80;0.35;;;21.40;1.00;;;;;;5052151;28;20524;-55
2023/08/04 11:20:05;;;;;;;0.90;0.30;;;21.40;1.00;;;;;;5053946;28;20457;-54
2023/08/04 11:22:32;;;;;;;0.80;0.40;;;21.20;1.00;;;;;;5071268;28;20520;-54
2023/08/04 11:25:00;;;;;;;0.90;0.40;;;21.20;1.00;;;;;;5049213;28;20794;-53
2023/08/04 11:27:27;;;;;;;0.50;0.30;;;21.00;1.00;;;;;;5034064;28;20438;-55
2023/08/04 11:29:54;;;;;;;1.10;0.30;;;21.10;1.00;;;;;;5045433;28;20433;-56
2023/08/04 11:32:23;;;;;;;0.60;0.30;;;21.20;1.00;;;;;;5053517;28;20528;-57
2023/08/04 11:34:50;;;;;;;0.68;0.30;;;21.20;99.90;;;;;;5049094;28;20430;-56
2023/08/04 11:37:19;;;;;;;1.10;0.70;;;21.20;99.90;;;;;;5053606;28;20501;-56
2023/08/04 11:39:46;;;;;;;0.47;0.30;;;21.20;1.00;;;;;;5058897;28;20652;-55
2023/08/04 11:42:14;;;;;;;1.60;0.40;;;21.20;1.00;;;;;;5054167;28;20784;-53
2023/08/04 11:44:41;;;;;;;0.70;0.30;;;21.10;99.90;;;;;;5049201;28;20439;-55
2023/08/04 11:47:09;;;;;;;0.93;0.30;;;21.20;1.00;;;;;;5049629;28;20448;-55
2023/08/04 11:49:36;;;;;;;1.00;0.40;;;21.10;1.00;;;;;;5049612;28;20485;-56
2023/08/04 11:52:09;;;;;;;0.80;0.30;;;21.10;1.00;;;;;;5041511;28;20827;-54
2023/08/04 11:54:50;;;;;;;0.60;0.30;;;20.90;1.00;;;;;;5053178;28;20720;-61
2023/08/04 11:57:19;;;;;;;0.60;0.30;;;20.70;99.90;;;;;;5049720;28;20441;-60
2023/08/04 11:59:47;;;;;;;0.55;0.22;;;20.60;99.90;;;;;;5054944;28;20551;-58
2023/08/04 12:02:14;;;;;;;0.40;0.30;;;20.50;1.00;;;;;;5048458;28;20650;-57
2023/08/04 12:04:41;;;;;;;0.40;0.20;;;20.40;1.00;;;;;;5034890;28;20790;-55
2023/08/04 12:07:08;;;;;;;0.50;0.30;;;20.20;99.90;;;;;;5040180;28;20516;-55
2023/08/04 12:09:37;;;;;;;1.13;0.30;;;20.10;1.00;;;;;;5055083;28;20908;-53
2023/08/04 12:12:05;;;;;;;1.50;0.30;;;20.00;1.00;;;;;;5047170;28;20544;-51
2023/08/04 12:14:32;;;;;;;2.00;0.40;;;20.00;1.00;;;;;;5054053;28;20516;-54
2023/08/04 12:17:00;;;;;;;0.60;0.30;;;20.00;1.00;;;;;;5040674;28;20458;-50
2023/08/04 12:19:28;;;;;;;0.60;0.30;;;20.00;1.00;;;;;;5040468;28;20427;-51
2023/08/04 12:21:58;;;;;;;0.95;0.30;;;20.00;1.00;;;;;;5051370;28;20539;-49
2023/08/04 12:24:25;;;;;;;1.10;0.40;;;20.10;1.00;;;;;;5048598;28;20448;-56
2023/08/04 12:26:54;;;;;;;0.47;0.20;;;20.20;1.00;;;;;;5046788;28;21224;-55
2023/08/04 12:29:21;;;;;;;0.60;0.30;;;20.30;1.00;;;;;;5053110;28;20512;-53
2023/08/04 12:31:48;;;;;;;0.60;0.30;;;20.50;1.00;;;;;;5039145;28;20456;-56
2023/08/04 12:34:15;;;;;;;0.60;0.30;;;20.60;1.00;;;;;;5049482;28;20516;-53
2023/08/04 12:36:42;;;;;;;0.43;0.30;;;20.60;1.00;;;;;;5045228;28;20537;-50
2023/08/04 12:39:09;;;;;;;0.90;0.20;;;20.70;1.00;;;;;;5052888;28;20505;-55
2023/08/04 12:41:36;;;;;;;0.60;0.30;;;20.70;1.00;;;;;;5047578;28;20433;-55
2023/08/04 12:44:05;;;;;;;0.57;0.28;;;20.70;1.00;;;;;;5051510;28;20520;-49
2023/08/04 12:46:32;;;;;;;0.50;0.30;;;20.70;1.00;;;;;;5048663;28;20460;-53
2023/08/04 12:48:59;;;;;;;0.40;0.20;;;20.80;1.00;;;;;;5051939;28;20460;-54
2023/08/04 12:51:26;;;;;;;0.40;0.20;;;20.80;1.00;;;;;;5040285;28;20540;-52
2023/08/04 12:53:53;;;;;;;0.70;0.20;;;20.70;1.00;;;;;;5047623;28;20541;-53
2023/08/04 12:56:20;;;;;;;0.60;0.20;;;21.20;1.00;;;;;;5049998;28;20928;-54
2023/08/04 12:58:47;;;;;;;0.50;0.20;;;21.40;99.90;;;;;;5051879;28;20474;-53